createdAt,value
2017-03-12T00:00:00.864Z,54.1
2017-03-12T00:10:19.753Z,54.6
2017-03-12T00:20:16.357Z,54.1
2017-03-12T00:30:16.356Z,54.1
2017-03-12T00:40:16.356Z,54.1
2017-03-12T00:50:05.660Z,54.1
2017-03-12T01:00:06.360Z,53.5
2017-03-12T01:10:06.390Z,53.5
2017-03-12T01:20:06.365Z,53.5
2017-03-12T01:30:06.362Z,53.5
2017-03-12T01:40:06.359Z,53.5
2017-03-12T01:50:06.366Z,54.1
2017-03-12T02:00:06.364Z,53
2017-03-12T02:10:06.400Z,53
2017-03-12T02:20:06.361Z,53
2017-03-12T02:30:06.365Z,53.5
2017-03-12T02:40:06.400Z,53
2017-03-12T02:50:06.392Z,53.5
2017-03-12T03:00:06.430Z,53
2017-03-12T03:10:06.359Z,53
2017-03-12T03:20:06.389Z,53
2017-03-12T03:30:06.360Z,53
2017-03-12T03:40:06.356Z,53
2017-03-12T03:50:06.370Z,52.5
2017-03-12T04:00:06.359Z,52.5
2017-03-12T04:10:06.359Z,53
2017-03-12T04:20:06.356Z,53
2017-03-12T04:30:06.365Z,53
2017-03-12T04:40:06.360Z,53
2017-03-12T04:50:06.389Z,52.5
2017-03-12T05:00:06.358Z,51.9
2017-03-12T05:10:06.358Z,51.9
2017-03-12T05:20:06.382Z,51.9
2017-03-12T05:30:06.400Z,52.5
2017-03-12T05:40:06.384Z,51.9
2017-03-12T05:50:06.359Z,52.5
2017-03-12T06:00:06.366Z,51.9
2017-03-12T06:10:06.363Z,51.9
2017-03-12T06:20:06.394Z,51.9
2017-03-12T06:30:06.356Z,51.9
2017-03-12T06:40:06.355Z,51.9
2017-03-12T06:50:06.396Z,51.4
2017-03-12T07:00:06.390Z,51.9
2017-03-12T07:10:06.359Z,51.9
2017-03-12T07:20:06.353Z,51.9
2017-03-12T07:30:06.356Z,51.9
2017-03-12T07:40:06.357Z,51.9
2017-03-12T07:50:06.360Z,52.5
2017-03-12T08:00:06.356Z,51.9
2017-03-12T08:10:06.386Z,52.5
2017-03-12T08:20:06.355Z,51.9
2017-03-12T08:30:06.390Z,51.9
2017-03-12T08:40:06.356Z,52.5
2017-03-12T08:50:06.390Z,51.9
2017-03-12T09:00:06.364Z,53
2017-03-12T09:10:06.391Z,52.5
2017-03-12T09:20:06.356Z,53
2017-03-12T09:30:06.383Z,52.5
2017-03-12T09:40:06.352Z,53
2017-03-12T09:50:06.355Z,52.5
2017-03-12T10:00:06.395Z,53.5
2017-03-12T10:10:06.355Z,53
2017-03-12T10:20:06.389Z,53
2017-03-12T10:30:06.390Z,53
2017-03-12T10:40:06.390Z,54.1
2017-03-12T10:50:06.360Z,53.5
2017-03-12T11:00:06.391Z,54.1
2017-03-12T11:10:06.387Z,54.1
2017-03-12T11:20:06.358Z,54.1
2017-03-12T11:30:06.389Z,55.1
2017-03-12T11:40:06.395Z,55.1
2017-03-12T11:50:06.391Z,55.1
2017-03-12T12:00:06.380Z,55.1
2017-03-12T12:10:06.398Z,55.7
2017-03-12T12:20:06.359Z,55.1
2017-03-12T12:30:06.365Z,55.7
2017-03-12T12:40:06.360Z,55.7
2017-03-12T12:50:06.360Z,55.7
2017-03-12T13:00:06.359Z,55.1
2017-03-12T13:10:06.359Z,56.2
2017-03-12T13:20:02.874Z,57.3
2017-03-12T13:30:06.366Z,57.3
2017-03-12T13:40:06.398Z,57.3
2017-03-12T13:50:06.398Z,57.3
2017-03-12T14:00:06.399Z,56.2
2017-03-12T14:10:06.391Z,56.2
2017-03-12T14:20:06.363Z,55.7
2017-03-12T14:30:06.359Z,56.2
2017-03-12T14:40:06.359Z,55.7
2017-03-12T14:50:06.366Z,55.7
2017-03-12T15:00:06.362Z,55.7
2017-03-12T15:10:06.361Z,55.7
2017-03-12T15:20:06.395Z,55.1
2017-03-12T15:30:06.359Z,55.1
2017-03-12T15:40:06.377Z,55.7
2017-03-12T15:50:06.358Z,55.7
2017-03-12T16:00:06.359Z,55.7
2017-03-12T16:10:06.367Z,55.7
2017-03-12T16:20:06.358Z,56.2
2017-03-12T16:30:06.365Z,56.2
2017-03-12T16:40:06.388Z,56.2
2017-03-12T16:50:06.369Z,56.2
2017-03-12T17:00:06.361Z,55.7
2017-03-12T17:10:06.362Z,55.7
2017-03-12T17:20:06.358Z,55.7
2017-03-12T17:30:06.360Z,55.1
2017-03-12T17:40:06.393Z,56.2
2017-03-12T17:50:06.360Z,55.7
2017-03-12T18:00:06.368Z,56.2
2017-03-12T18:10:06.390Z,56.2
2017-03-12T18:20:06.362Z,55.7
2017-03-12T18:30:06.361Z,55.7
2017-03-12T18:40:06.361Z,55.7
2017-03-12T18:50:06.394Z,55.7
2017-03-12T19:00:04.393Z,55.1
2017-03-12T19:10:06.369Z,55.7
2017-03-12T19:20:06.362Z,55.1
2017-03-12T19:30:06.410Z,55.1
2017-03-12T19:40:06.400Z,55.1
2017-03-12T19:50:06.509Z,54.6
2017-03-12T20:00:06.364Z,55.1
2017-03-12T20:10:06.361Z,55.1
2017-03-12T20:20:06.361Z,55.1
2017-03-12T20:30:06.363Z,54.6
2017-03-12T20:40:06.505Z,54.6
2017-03-12T20:50:06.552Z,55.1
2017-03-12T21:00:06.394Z,54.1
2017-03-12T21:10:06.417Z,54.6
2017-03-12T21:20:06.372Z,54.1
2017-03-12T21:30:06.424Z,55.1
2017-03-12T21:40:06.361Z,54.1
2017-03-12T21:50:06.362Z,54.1
2017-03-12T22:00:06.399Z,54.1
2017-03-12T22:10:06.362Z,54.1
2017-03-12T22:20:06.359Z,54.1
2017-03-12T22:30:06.369Z,54.1
2017-03-12T22:40:06.356Z,54.1
2017-03-12T22:50:06.361Z,54.1
2017-03-12T23:00:06.393Z,53.5
2017-03-12T23:10:06.358Z,54.1
2017-03-12T23:20:06.420Z,53.5
2017-03-12T23:30:06.359Z,53.5
2017-03-12T23:40:06.357Z,53.5
2017-03-12T23:50:06.358Z,54.1
